sensor_id;sensor_type;location;lat;lon;timestamp;pressure;altitude;pressure_sealevel;temperature;humidity
21240;BME280;10778;48.962;9.018;2023-01-10T00:01:34;98783.69;;;3.86;100.00
21240;BME280;10778;48.962;9.018;2023-01-10T00:04:00;98792.09;;;3.90;100.00
21240;BME280;10778;48.962;9.018;2023-01-10T00:06:26;98793.03;;;3.89;100.00
21240;BME280;10778;48.962;9.018;2023-01-10T00:08:52;98798.66;;;3.82;100.00
21240;BME280;10778;48.962;9.018;2023-01-10T00:11:18;98791.88;;;3.80;100.00
21240;BME280;10778;48.962;9.018;2023-01-10T00:14:02;98795.94;;;3.84;100.00
21240;BME280;10778;48.962;9.018;2023-01-10T00:16:28;98799.03;;;3.76;100.00
21240;BME280;10778;48.962;9.018;2023-01-10T00:18:54;98807.19;;;3.84;100.00
21240;BME280;10778;48.962;9.018;2023-01-10T00:21:20;98814.16;;;3.84;100.00
21240;BME280;10778;48.962;9.018;2023-01-10T00:23:46;98816.03;;;3.82;100.00
21240;BME280;10778;48.962;9.018;2023-01-10T00:26:13;98822.72;;;3.86;100.00
21240;BME280;10778;48.962;9.018;2023-01-10T00:28:39;98834.38;;;3.93;100.00
21240;BME280;10778;48.962;9.018;2023-01-10T00:31:06;98836.66;;;3.98;100.00
21240;BME280;10778;48.962;9.018;2023-01-10T00:33:34;98837.59;;;3.97;100.00
21240;BME280;10778;48.962;9.018;2023-01-10T00:36:02;98839.66;;;3.92;100.00
21240;BME280;10778;48.962;9.018;2023-01-10T00:38:29;98849.91;;;3.95;100.00
21240;BME280;10778;48.962;9.018;2023-01-10T00:40:56;98852.69;;;3.92;100.00
21240;BME280;10778;48.962;9.018;2023-01-10T00:43:22;98852.59;;;3.93;100.00
21240;BME280;10778;48.962;9.018;2023-01-10T00:46:08;98860.91;;;3.98;100.00
21240;BME280;10778;48.962;9.018;2023-01-10T00:48:34;98864.88;;;3.91;100.00
21240;BME280;10778;48.962;9.018;2023-01-10T00:51:01;98867.28;;;3.94;100.00
21240;BME280;10778;48.962;9.018;2023-01-10T00:53:27;98872.69;;;3.91;100.00
21240;BME280;10778;48.962;9.018;2023-01-10T00:55:54;98883.28;;;3.88;100.00
21240;BME280;10778;48.962;9.018;2023-01-10T00:58:20;98878.81;;;3.90;100.00
21240;BME280;10778;48.962;9.018;2023-01-10T01:00:47;98888.50;;;3.88;100.00
21240;BME280;10778;48.962;9.018;2023-01-10T01:03:18;98886.41;;;3.93;100.00
21240;BME280;10778;48.962;9.018;2023-01-10T01:05:46;98892.66;;;3.91;100.00
21240;BME280;10778;48.962;9.018;2023-01-10T01:08:14;98904.94;;;3.89;100.00
21240;BME280;10778;48.962;9.018;2023-01-10T01:10:41;98907.34;;;3.92;100.00
21240;BME280;10778;48.962;9.018;2023-01-10T01:13:17;98912.78;;;4.02;100.00
21240;BME280;10778;48.962;9.018;2023-01-10T01:15:44;98922.56;;;3.98;100.00
21240;BME280;10778;48.962;9.018;2023-01-10T01:18:17;98926.63;;;4.02;100.00
21240;BME280;10778;48.962;9.018;2023-01-10T01:20:43;98925.41;;;4.08;100.00
21240;BME280;10778;48.962;9.018;2023-01-10T01:23:11;98935.59;;;4.11;100.00
21240;BME280;10778;48.962;9.018;2023-01-10T01:25:37;98948.41;;;4.14;100.00
21240;BME280;10778;48.962;9.018;2023-01-10T01:28:03;98952.97;;;4.10;100.00
21240;BME280;10778;48.962;9.018;2023-01-10T01:30:29;98967.59;;;4.13;100.00
21240;BME280;10778;48.962;9.018;2023-01-10T01:32:55;98976.25;;;4.13;100.00
21240;BME280;10778;48.962;9.018;2023-01-10T01:35:21;98985.00;;;4.12;100.00
21240;BME280;10778;48.962;9.018;2023-01-10T01:37:47;98989.44;;;4.10;100.00
21240;BME280;10778;48.962;9.018;2023-01-10T01:40:15;98989.56;;;4.09;100.00
21240;BME280;10778;48.962;9.018;2023-01-10T01:42:43;99002.88;;;4.04;100.00
21240;BME280;10778;48.962;9.018;2023-01-10T01:48:07;99018.69;;;4.01;100.00
21240;BME280;10778;48.962;9.018;2023-01-10T01:53:12;99034.06;;;3.91;100.00
21240;BME280;10778;48.962;9.018;2023-01-10T01:55:40;99038.31;;;3.92;100.00
21240;BME280;10778;48.962;9.018;2023-01-10T01:58:12;99044.56;;;3.90;100.00
21240;BME280;10778;48.962;9.018;2023-01-10T02:00:40;99048.94;;;3.89;100.00
21240;BME280;10778;48.962;9.018;2023-01-10T02:03:06;99051.16;;;3.81;100.00
21240;BME280;10778;48.962;9.018;2023-01-10T02:05:35;99054.63;;;3.81;100.00
21240;BME280;10778;48.962;9.018;2023-01-10T02:08:04;99052.84;;;3.82;100.00
21240;BME280;10778;48.962;9.018;2023-01-10T02:10:37;99069.31;;;3.82;100.00
21240;BME280;10778;48.962;9.018;2023-01-10T02:13:07;99077.38;;;3.78;100.00
21240;BME280;10778;48.962;9.018;2023-01-10T02:15:34;99079.78;;;3.81;100.00
21240;BME280;10778;48.962;9.018;2023-01-10T02:18:01;99074.06;;;3.76;100.00
21240;BME280;10778;48.962;9.018;2023-01-10T02:20:31;99066.31;;;3.74;100.00
21240;BME280;10778;48.962;9.018;2023-01-10T02:26:35;99074.53;;;3.68;100.00
21240;BME280;10778;48.962;9.018;2023-01-10T02:29:23;99078.88;;;3.67;100.00
21240;BME280;10778;48.962;9.018;2023-01-10T02:34:44;99085.41;;;3.60;100.00
21240;BME280;10778;48.962;9.018;2023-01-10T02:40:13;99099.34;;;3.59;100.00
21240;BME280;10778;48.962;9.018;2023-01-10T02:42:48;99106.94;;;3.62;100.00
21240;BME280;10778;48.962;9.018;2023-01-10T02:45:28;99105.94;;;3.65;100.00
21240;BME280;10778;48.962;9.018;2023-01-10T02:47:56;99118.41;;;3.60;100.00
21240;BME280;10778;48.962;9.018;2023-01-10T02:50:42;99126.84;;;3.63;100.00
21240;BME280;10778;48.962;9.018;2023-01-10T02:53:12;99135.75;;;3.59;100.00
21240;BME280;10778;48.962;9.018;2023-01-10T03:04:11;99150.88;;;3.38;100.00
21240;BME280;10778;48.962;9.018;2023-01-10T03:09:31;99160.47;;;3.37;100.00
21240;BME280;10778;48.962;9.018;2023-01-10T03:12:12;99158.78;;;3.36;100.00
21240;BME280;10778;48.962;9.018;2023-01-10T03:14:39;99161.38;;;3.36;100.00
21240;BME280;10778;48.962;9.018;2023-01-10T03:17:09;99169.34;;;3.33;100.00
21240;BME280;10778;48.962;9.018;2023-01-10T03:19:49;99165.25;;;3.29;100.00
21240;BME280;10778;48.962;9.018;2023-01-10T03:22:16;99175.78;;;3.27;100.00
21240;BME280;10778;48.962;9.018;2023-01-10T03:24:46;99178.63;;;3.23;100.00
21240;BME280;10778;48.962;9.018;2023-01-10T03:27:26;99194.41;;;3.20;100.00
21240;BME280;10778;48.962;9.018;2023-01-10T03:30:00;99195.81;;;3.25;100.00
21240;BME280;10778;48.962;9.018;2023-01-10T03:32:29;99197.38;;;3.28;100.00
21240;BME280;10778;48.962;9.018;2023-01-10T03:35:00;99202.41;;;3.31;100.00
21240;BME280;10778;48.962;9.018;2023-01-10T03:37:34;99206.13;;;3.27;100.00
21240;BME280;10778;48.962;9.018;2023-01-10T03:40:07;99206.31;;;3.24;100.00
21240;BME280;10778;48.962;9.018;2023-01-10T03:46:20;99216.03;;;3.20;100.00
21240;BME280;10778;48.962;9.018;2023-01-10T03:48:49;99228.38;;;3.17;100.00
21240;BME280;10778;48.962;9.018;2023-01-10T03:51:17;99229.56;;;3.11;100.00
21240;BME280;10778;48.962;9.018;2023-01-10T03:53:44;99225.94;;;3.13;100.00
21240;BME280;10778;48.962;9.018;2023-01-10T03:56:13;99237.44;;;3.09;100.00
21240;BME280;10778;48.962;9.018;2023-01-10T03:58:40;99236.13;;;3.02;100.00
21240;BME280;10778;48.962;9.018;2023-01-10T04:01:06;99234.47;;;3.01;100.00
21240;BME280;10778;48.962;9.018;2023-01-10T04:03:32;99245.78;;;3.00;100.00
21240;BME280;10778;48.962;9.018;2023-01-10T04:05:58;99258.78;;;3.00;100.00
21240;BME280;10778;48.962;9.018;2023-01-10T04:08:24;99263.47;;;2.93;100.00
21240;BME280;10778;48.962;9.018;2023-01-10T04:10:50;99269.50;;;2.94;100.00
21240;BME280;10778;48.962;9.018;2023-01-10T04:13:16;99265.16;;;2.94;100.00
21240;BME280;10778;48.962;9.018;2023-01-10T04:15:42;99270.78;;;2.87;100.00
21240;BME280;10778;48.962;9.018;2023-01-10T04:18:08;99275.88;;;2.88;100.00
21240;BME280;10778;48.962;9.018;2023-01-10T04:20:34;99281.16;;;2.87;100.00
21240;BME280;10778;48.962;9.018;2023-01-10T04:23:00;99286.03;;;2.77;100.00
21240;BME280;10778;48.962;9.018;2023-01-10T04:25:26;99285.75;;;2.81;100.00
21240;BME280;10778;48.962;9.018;2023-01-10T04:27:53;99298.91;;;2.78;100.00
21240;BME280;10778;48.962;9.018;2023-01-10T04:30:19;99315.38;;;2.79;100.00
21240;BME280;10778;48.962;9.018;2023-01-10T04:32:46;99321.13;;;2.84;100.00
21240;BME280;10778;48.962;9.018;2023-01-10T04:35:12;99324.41;;;2.88;100.00
21240;BME280;10778;48.962;9.018;2023-01-10T04:37:38;99329.44;;;2.91;100.00
21240;BME280;10778;48.962;9.018;2023-01-10T04:40:05;99334.72;;;2.89;100.00
21240;BME280;10778;48.962;9.018;2023-01-10T04:42:31;99343.22;;;3.09;100.00
21240;BME280;10778;48.962;9.018;2023-01-10T04:44:57;99352.00;;;3.06;100.00
21240;BME280;10778;48.962;9.018;2023-01-10T04:47:23;99357.59;;;3.15;100.00
21240;BME280;10778;48.962;9.018;2023-01-10T04:49:49;99355.69;;;3.18;100.00
21240;BME280;10778;48.962;9.018;2023-01-10T04:52:15;99349.50;;;3.21;100.00
21240;BME280;10778;48.962;9.018;2023-01-10T04:54:41;99362.72;;;3.16;100.00
21240;BME280;10778;48.962;9.018;2023-01-10T04:57:07;99368.00;;;3.15;100.00
21240;BME280;10778;48.962;9.018;2023-01-10T04:59:33;99367.75;;;3.19;100.00
21240;BME280;10778;48.962;9.018;2023-01-10T05:01:59;99369.78;;;3.14;100.00
21240;BME280;10778;48.962;9.018;2023-01-10T05:04:25;99374.13;;;3.13;100.00
21240;BME280;10778;48.962;9.018;2023-01-10T05:06:51;99387.88;;;3.16;100.00
21240;BME280;10778;48.962;9.018;2023-01-10T05:09:17;99385.78;;;3.22;100.00
21240;BME280;10778;48.962;9.018;2023-01-10T05:11:43;99397.13;;;3.21;100.00
21240;BME280;10778;48.962;9.018;2023-01-10T05:14:09;99402.25;;;3.23;100.00
21240;BME280;10778;48.962;9.018;2023-01-10T05:16:35;99403.00;;;3.25;100.00
21240;BME280;10778;48.962;9.018;2023-01-10T05:19:01;99414.38;;;3.22;100.00
21240;BME280;10778;48.962;9.018;2023-01-10T05:21:27;99411.72;;;3.24;100.00
21240;BME280;10778;48.962;9.018;2023-01-10T05:23:53;99415.66;;;3.31;100.00
21240;BME280;10778;48.962;9.018;2023-01-10T05:26:21;99429.75;;;3.27;100.00
21240;BME280;10778;48.962;9.018;2023-01-10T05:28:47;99434.72;;;3.32;100.00
21240;BME280;10778;48.962;9.018;2023-01-10T05:31:16;99443.94;;;3.37;100.00
21240;BME280;10778;48.962;9.018;2023-01-10T05:33:44;99448.41;;;3.35;100.00
21240;BME280;10778;48.962;9.018;2023-01-10T05:36:11;99445.78;;;3.35;100.00
21240;BME280;10778;48.962;9.018;2023-01-10T05:38:37;99446.03;;;3.47;100.00
21240;BME280;10778;48.962;9.018;2023-01-10T05:41:03;99455.84;;;3.41;100.00
21240;BME280;10778;48.962;9.018;2023-01-10T05:43:29;99454.91;;;3.59;100.00
21240;BME280;10778;48.962;9.018;2023-01-10T05:45:55;99446.94;;;3.46;100.00
21240;BME280;10778;48.962;9.018;2023-01-10T05:48:22;99460.88;;;3.45;100.00
21240;BME280;10778;48.962;9.018;2023-01-10T05:50:49;99455.50;;;3.80;100.00
21240;BME280;10778;48.962;9.018;2023-01-10T05:53:16;99456.81;;;4.03;100.00
21240;BME280;10778;48.962;9.018;2023-01-10T05:55:42;99451.09;;;3.96;100.00
21240;BME280;10778;48.962;9.018;2023-01-10T05:58:08;99459.16;;;3.92;100.00
21240;BME280;10778;48.962;9.018;2023-01-10T06:00:37;99461.00;;;4.06;100.00
21240;BME280;10778;48.962;9.018;2023-01-10T06:03:06;99466.91;;;4.24;100.00
21240;BME280;10778;48.962;9.018;2023-01-10T06:05:32;99463.31;;;4.10;100.00
21240;BME280;10778;48.962;9.018;2023-01-10T06:07:58;99463.69;;;4.04;100.00
21240;BME280;10778;48.962;9.018;2023-01-10T06:10:24;99478.38;;;4.21;100.00
21240;BME280;10778;48.962;9.018;2023-01-10T06:12:50;99478.38;;;4.36;100.00
21240;BME280;10778;48.962;9.018;2023-01-10T06:15:16;99478.38;;;4.36;100.00
21240;BME280;10778;48.962;9.018;2023-01-10T06:17:42;99474.94;;;4.35;100.00
21240;BME280;10778;48.962;9.018;2023-01-10T06:20:12;99483.38;;;4.24;100.00
21240;BME280;10778;48.962;9.018;2023-01-10T06:22:40;99481.91;;;4.20;100.00
21240;BME280;10778;48.962;9.018;2023-01-10T06:25:08;99484.81;;;4.30;100.00
21240;BME280;10778;48.962;9.018;2023-01-10T06:27:38;99484.84;;;4.14;100.00
21240;BME280;10778;48.962;9.018;2023-01-10T06:30:05;99499.00;;;3.94;100.00
21240;BME280;10778;48.962;9.018;2023-01-10T06:32:31;99502.25;;;3.81;100.00
21240;BME280;10778;48.962;9.018;2023-01-10T06:34:57;99516.44;;;3.76;100.00
21240;BME280;10778;48.962;9.018;2023-01-10T06:37:23;99513.84;;;3.76;100.00
21240;BME280;10778;48.962;9.018;2023-01-10T06:39:49;99529.78;;;3.86;100.00
21240;BME280;10778;48.962;9.018;2023-01-10T06:42:16;99534.16;;;4.01;100.00
21240;BME280;10778;48.962;9.018;2023-01-10T06:44:42;99528.28;;;3.97;100.00
21240;BME280;10778;48.962;9.018;2023-01-10T06:47:08;99532.72;;;3.95;100.00
21240;BME280;10778;48.962;9.018;2023-01-10T06:49:34;99533.75;;;3.77;100.00
21240;BME280;10778;48.962;9.018;2023-01-10T06:52:00;99545.50;;;3.68;100.00
21240;BME280;10778;48.962;9.018;2023-01-10T06:54:26;99548.34;;;3.63;100.00
21240;BME280;10778;48.962;9.018;2023-01-10T06:56:52;99550.34;;;3.58;100.00
21240;BME280;10778;48.962;9.018;2023-01-10T06:59:17;99550.59;;;3.53;100.00
21240;BME280;10778;48.962;9.018;2023-01-10T07:01:43;99559.16;;;3.55;100.00
21240;BME280;10778;48.962;9.018;2023-01-10T07:04:09;99555.78;;;3.53;100.00
21240;BME280;10778;48.962;9.018;2023-01-10T07:06:36;99558.84;;;3.62;100.00
21240;BME280;10778;48.962;9.018;2023-01-10T07:09:03;99563.28;;;3.60;100.00
21240;BME280;10778;48.962;9.018;2023-01-10T07:11:30;99571.09;;;3.60;100.00
21240;BME280;10778;48.962;9.018;2023-01-10T07:13:59;99582.09;;;3.65;100.00
21240;BME280;10778;48.962;9.018;2023-01-10T07:16:26;99584.13;;;3.60;100.00
21240;BME280;10778;48.962;9.018;2023-01-10T07:18:52;99588.28;;;3.62;100.00
21240;BME280;10778;48.962;9.018;2023-01-10T07:21:18;99584.88;;;3.62;100.00
21240;BME280;10778;48.962;9.018;2023-01-10T07:23:48;99582.25;;;3.62;100.00
21240;BME280;10778;48.962;9.018;2023-01-10T07:26:15;99578.91;;;3.60;100.00
21240;BME280;10778;48.962;9.018;2023-01-10T07:28:43;99575.38;;;3.61;100.00
21240;BME280;10778;48.962;9.018;2023-01-10T07:31:10;99576.22;;;3.61;100.00
21240;BME280;10778;48.962;9.018;2023-01-10T07:33:36;99583.84;;;3.64;100.00
21240;BME280;10778;48.962;9.018;2023-01-10T07:36:02;99601.47;;;3.59;100.00
21240;BME280;10778;48.962;9.018;2023-01-10T07:38:28;99604.06;;;3.59;100.00
21240;BME280;10778;48.962;9.018;2023-01-10T07:40:54;99622.88;;;3.64;100.00
21240;BME280;10778;48.962;9.018;2023-01-10T07:43:20;99627.31;;;3.62;100.00
21240;BME280;10778;48.962;9.018;2023-01-10T07:45:46;99627.09;;;3.67;100.00
21240;BME280;10778;48.962;9.018;2023-01-10T07:48:12;99627.50;;;3.59;100.00
21240;BME280;10778;48.962;9.018;2023-01-10T07:50:38;99639.25;;;3.66;100.00
21240;BME280;10778;48.962;9.018;2023-01-10T07:53:06;99652.78;;;3.73;100.00
21240;BME280;10778;48.962;9.018;2023-01-10T07:55:34;99657.91;;;3.75;100.00
21240;BME280;10778;48.962;9.018;2023-01-10T07:58:01;99656.13;;;3.75;100.00
21240;BME280;10778;48.962;9.018;2023-01-10T08:00:27;99653.53;;;3.75;100.00
21240;BME280;10778;48.962;9.018;2023-01-10T08:02:54;99662.88;;;3.79;100.00
21240;BME280;10778;48.962;9.018;2023-01-10T08:05:21;99664.03;;;3.74;100.00
21240;BME280;10778;48.962;9.018;2023-01-10T08:07:48;99658.59;;;3.78;100.00
21240;BME280;10778;48.962;9.018;2023-01-10T08:10:14;99662.19;;;3.76;100.00
21240;BME280;10778;48.962;9.018;2023-01-10T08:12:40;99667.47;;;3.74;100.00
21240;BME280;10778;48.962;9.018;2023-01-10T08:15:06;99666.25;;;3.81;100.00
21240;BME280;10778;48.962;9.018;2023-01-10T08:17:33;99677.94;;;3.90;100.00
21240;BME280;10778;48.962;9.018;2023-01-10T08:20:00;99680.59;;;3.89;100.00
21240;BME280;10778;48.962;9.018;2023-01-10T08:22:26;99684.66;;;3.94;100.00
21240;BME280;10778;48.962;9.018;2023-01-10T08:24:52;99689.53;;;4.01;100.00
21240;BME280;10778;48.962;9.018;2023-01-10T08:27:18;99693.06;;;3.99;100.00
21240;BME280;10778;48.962;9.018;2023-01-10T08:29:44;99702.06;;;3.94;100.00
21240;BME280;10778;48.962;9.018;2023-01-10T08:32:10;99707.41;;;3.91;100.00
21240;BME280;10778;48.962;9.018;2023-01-10T08:34:36;99705.47;;;3.94;100.00
21240;BME280;10778;48.962;9.018;2023-01-10T08:37:02;99701.72;;;4.00;100.00
21240;BME280;10778;48.962;9.018;2023-01-10T08:39:29;99696.84;;;3.94;100.00
21240;BME280;10778;48.962;9.018;2023-01-10T08:41:56;99692.47;;;3.94;100.00
21240;BME280;10778;48.962;9.018;2023-01-10T08:44:22;99699.13;;;4.00;100.00
21240;BME280;10778;48.962;9.018;2023-01-10T08:46:48;99687.38;;;4.09;100.00
21240;BME280;10778;48.962;9.018;2023-01-10T08:49:14;99695.09;;;4.10;100.00
21240;BME280;10778;48.962;9.018;2023-01-10T08:51:40;99706.59;;;4.06;100.00
21240;BME280;10778;48.962;9.018;2023-01-10T08:54:06;99694.94;;;4.13;100.00
21240;BME280;10778;48.962;9.018;2023-01-10T08:56:32;99706.28;;;4.12;99.91
21240;BME280;10778;48.962;9.018;2023-01-10T08:59:00;99701.56;;;4.19;100.00
21240;BME280;10778;48.962;9.018;2023-01-10T09:01:26;99707.72;;;4.34;98.98
21240;BME280;10778;48.962;9.018;2023-01-10T09:03:52;99707.06;;;4.47;99.33
21240;BME280;10778;48.962;9.018;2023-01-10T09:06:18;99711.59;;;4.43;97.89
21240;BME280;10778;48.962;9.018;2023-01-10T09:08:44;99707.81;;;4.49;97.82
21240;BME280;10778;48.962;9.018;2023-01-10T09:11:10;99715.13;;;4.42;98.79
21240;BME280;10778;48.962;9.018;2023-01-10T09:13:36;99713.03;;;4.49;98.92
21240;BME280;10778;48.962;9.018;2023-01-10T09:16:03;99720.34;;;4.58;98.84
21240;BME280;10778;48.962;9.018;2023-01-10T09:18:29;99725.03;;;4.51;97.73
21240;BME280;10778;48.962;9.018;2023-01-10T09:20:55;99720.69;;;4.52;98.91
21240;BME280;10778;48.962;9.018;2023-01-10T09:23:22;99714.69;;;4.66;97.95
21240;BME280;10778;48.962;9.018;2023-01-10T09:25:50;99714.44;;;4.70;97.54
21240;BME280;10778;48.962;9.018;2023-01-10T09:28:17;99712.44;;;4.60;96.68
21240;BME280;10778;48.962;9.018;2023-01-10T09:30:44;99719.41;;;4.59;96.34
21240;BME280;10778;48.962;9.018;2023-01-10T09:33:12;99712.19;;;4.64;95.66
21240;BME280;10778;48.962;9.018;2023-01-10T09:35:39;99716.56;;;4.64;95.90
21240;BME280;10778;48.962;9.018;2023-01-10T09:38:09;99731.69;;;4.73;95.71
21240;BME280;10778;48.962;9.018;2023-01-10T09:43:41;99754.06;;;4.77;95.35
21240;BME280;10778;48.962;9.018;2023-01-10T09:46:25;99748.34;;;4.70;95.00
21240;BME280;10778;48.962;9.018;2023-01-10T09:51:57;99760.63;;;4.68;94.10
21240;BME280;10778;48.962;9.018;2023-01-10T09:54:27;99769.59;;;4.79;94.56
21240;BME280;10778;48.962;9.018;2023-01-10T09:56:54;99781.13;;;4.91;93.39
21240;BME280;10778;48.962;9.018;2023-01-10T09:59:25;99780.28;;;4.90;94.02
21240;BME280;10778;48.962;9.018;2023-01-10T10:02:06;99782.63;;;4.95;93.41
21240;BME280;10778;48.962;9.018;2023-01-10T10:04:39;99784.75;;;4.88;92.88
21240;BME280;10778;48.962;9.018;2023-01-10T10:07:13;99787.09;;;4.93;93.63
21240;BME280;10778;48.962;9.018;2023-01-10T10:09:39;99786.00;;;4.97;93.19
21240;BME280;10778;48.962;9.018;2023-01-10T10:15:42;99784.06;;;5.01;92.71
21240;BME280;10778;48.962;9.018;2023-01-10T10:18:02;99778.50;;;5.07;91.73
21240;BME280;10778;48.962;9.018;2023-01-10T10:26:12;99777.81;;;5.03;90.12
21240;BME280;10778;48.962;9.018;2023-01-10T10:34:30;99793.53;;;5.18;89.89
21240;BME280;10778;48.962;9.018;2023-01-10T10:37:07;99784.97;;;5.16;89.35
21240;BME280;10778;48.962;9.018;2023-01-10T10:39:53;99769.19;;;5.33;88.62
21240;BME280;10778;48.962;9.018;2023-01-10T10:42:20;99766.81;;;5.45;87.92
21240;BME280;10778;48.962;9.018;2023-01-10T10:44:54;99768.19;;;5.66;88.08
21240;BME280;10778;48.962;9.018;2023-01-10T10:47:32;99762.97;;;5.66;86.90
21240;BME280;10778;48.962;9.018;2023-01-10T10:52:34;99757.38;;;6.18;84.36
21240;BME280;10778;48.962;9.018;2023-01-10T10:55:03;99754.22;;;7.24;79.51
21240;BME280;10778;48.962;9.018;2023-01-10T10:57:31;99755.25;;;7.62;76.92
21240;BME280;10778;48.962;9.018;2023-01-10T11:00:01;99753.41;;;7.90;74.80
21240;BME280;10778;48.962;9.018;2023-01-10T11:02:29;99748.72;;;8.58;71.86
21240;BME280;10778;48.962;9.018;2023-01-10T11:04:59;99742.31;;;8.36;69.27
21240;BME280;10778;48.962;9.018;2023-01-10T11:07:34;99742.69;;;8.06;72.29
21240;BME280;10778;48.962;9.018;2023-01-10T11:10:13;99740.56;;;8.37;72.12
21240;BME280;10778;48.962;9.018;2023-01-10T11:12:47;99750.41;;;8.59;72.20
21240;BME280;10778;48.962;9.018;2023-01-10T11:15:39;99750.75;;;8.03;71.51
21240;BME280;10778;48.962;9.018;2023-01-10T11:18:14;99750.34;;;7.83;73.32
21240;BME280;10778;48.962;9.018;2023-01-10T11:21:14;99756.47;;;7.03;75.26
21240;BME280;10778;48.962;9.018;2023-01-10T11:23:55;99742.38;;;7.97;73.61
21240;BME280;10778;48.962;9.018;2023-01-10T11:26:38;99742.44;;;7.57;73.17
21240;BME280;10778;48.962;9.018;2023-01-10T11:29:19;99758.59;;;7.10;73.29
21240;BME280;10778;48.962;9.018;2023-01-10T11:31:48;99757.03;;;7.21;74.51
21240;BME280;10778;48.962;9.018;2023-01-10T11:34:24;99754.97;;;8.05;72.41
21240;BME280;10778;48.962;9.018;2023-01-10T11:37:03;99752.22;;;8.07;71.38
21240;BME280;10778;48.962;9.018;2023-01-10T11:39:30;99760.25;;;8.56;71.52
21240;BME280;10778;48.962;9.018;2023-01-10T11:42:31;99746.44;;;8.28;70.57
21240;BME280;10778;48.962;9.018;2023-01-10T11:45:20;99754.28;;;8.40;68.21
21240;BME280;10778;48.962;9.018;2023-01-10T11:50:31;99749.19;;;8.76;67.94
21240;BME280;10778;48.962;9.018;2023-01-10T11:52:57;99746.78;;;7.84;71.13
21240;BME280;10778;48.962;9.018;2023-01-10T11:55:26;99748.84;;;7.53;71.82
21240;BME280;10778;48.962;9.018;2023-01-10T11:58:05;99751.22;;;7.30;73.08
21240;BME280;10778;48.962;9.018;2023-01-10T12:00:35;99754.59;;;6.77;74.24
21240;BME280;10778;48.962;9.018;2023-01-10T12:03:17;99760.38;;;6.68;73.91
21240;BME280;10778;48.962;9.018;2023-01-10T12:05:56;99761.41;;;6.65;75.54
21240;BME280;10778;48.962;9.018;2023-01-10T12:08:34;99763.56;;;6.59;76.66
21240;BME280;10778;48.962;9.018;2023-01-10T12:11:07;99760.31;;;6.55;77.34
21240;BME280;10778;48.962;9.018;2023-01-10T12:13:51;99753.31;;;6.41;77.09
21240;BME280;10778;48.962;9.018;2023-01-10T12:18:51;99741.09;;;6.42;80.31
21240;BME280;10778;48.962;9.018;2023-01-10T12:21:24;99740.56;;;6.36;80.86
21240;BME280;10778;48.962;9.018;2023-01-10T12:23:53;99740.63;;;6.49;80.34
21240;BME280;10778;48.962;9.018;2023-01-10T12:26:20;99728.59;;;7.29;77.37
21240;BME280;10778;48.962;9.018;2023-01-10T12:28:50;99715.31;;;7.58;76.35
21240;BME280;10778;48.962;9.018;2023-01-10T12:31:19;99714.28;;;7.87;74.49
21240;BME280;10778;48.962;9.018;2023-01-10T12:33:52;99722.84;;;7.37;74.72
21240;BME280;10778;48.962;9.018;2023-01-10T12:36:29;99723.16;;;7.32;74.54
21240;BME280;10778;48.962;9.018;2023-01-10T12:39:01;99716.53;;;7.14;75.82
21240;BME280;10778;48.962;9.018;2023-01-10T12:44:34;99711.41;;;6.85;77.95
21240;BME280;10778;48.962;9.018;2023-01-10T12:49:50;99705.56;;;6.66;75.84
21240;BME280;10778;48.962;9.018;2023-01-10T12:52:32;99711.69;;;6.38;78.00
21240;BME280;10778;48.962;9.018;2023-01-10T12:54:59;99707.19;;;6.40;78.80
21240;BME280;10778;48.962;9.018;2023-01-10T12:57:33;99707.69;;;6.32;78.16
21240;BME280;10778;48.962;9.018;2023-01-10T13:00:04;99705.25;;;6.29;77.42
21240;BME280;10778;48.962;9.018;2023-01-10T13:02:39;99707.41;;;6.37;78.21
21240;BME280;10778;48.962;9.018;2023-01-10T13:05:19;99700.81;;;6.59;77.87
21240;BME280;10778;48.962;9.018;2023-01-10T13:07:48;99708.28;;;6.65;76.09
21240;BME280;10778;48.962;9.018;2023-01-10T13:10:18;99694.31;;;6.79;73.56
21240;BME280;10778;48.962;9.018;2023-01-10T13:12:53;99710.25;;;6.61;73.99
21240;BME280;10778;48.962;9.018;2023-01-10T13:17:51;99699.47;;;6.38;71.72
21240;BME280;10778;48.962;9.018;2023-01-10T13:22:58;99688.47;;;7.29;70.14
21240;BME280;10778;48.962;9.018;2023-01-10T13:25:30;99694.75;;;7.26;68.36
21240;BME280;10778;48.962;9.018;2023-01-10T13:28:18;99693.97;;;7.64;69.12
21240;BME280;10778;48.962;9.018;2023-01-10T13:30:51;99682.75;;;7.75;67.46
21240;BME280;10778;48.962;9.018;2023-01-10T13:33:29;99690.19;;;7.81;67.51
21240;BME280;10778;48.962;9.018;2023-01-10T13:36:07;99673.97;;;7.63;65.55
21240;BME280;10778;48.962;9.018;2023-01-10T13:39:03;99680.84;;;7.90;65.45
21240;BME280;10778;48.962;9.018;2023-01-10T14:03:56;99697.19;;;7.42;64.40
21240;BME280;10778;48.962;9.018;2023-01-10T14:08:54;99688.50;;;7.42;64.26
21240;BME280;10778;48.962;9.018;2023-01-10T14:11:24;99691.63;;;7.34;64.76
21240;BME280;10778;48.962;9.018;2023-01-10T14:13:57;99699.31;;;7.50;64.19
21240;BME280;10778;48.962;9.018;2023-01-10T14:16:32;99699.25;;;7.24;64.04
21240;BME280;10778;48.962;9.018;2023-01-10T14:19:00;99694.44;;;7.31;65.31
21240;BME280;10778;48.962;9.018;2023-01-10T14:21:28;99698.47;;;6.96;63.99
21240;BME280;10778;48.962;9.018;2023-01-10T14:23:56;99704.03;;;6.77;66.37
21240;BME280;10778;48.962;9.018;2023-01-10T14:28:54;99697.38;;;6.58;66.25
21240;BME280;10778;48.962;9.018;2023-01-10T14:31:22;99705.50;;;6.53;66.62
21240;BME280;10778;48.962;9.018;2023-01-10T14:33:50;99696.19;;;6.49;67.81
21240;BME280;10778;48.962;9.018;2023-01-10T14:36:25;99690.78;;;6.38;67.97
21240;BME280;10778;48.962;9.018;2023-01-10T14:38:56;99698.09;;;6.33;69.09
21240;BME280;10778;48.962;9.018;2023-01-10T14:41:55;99698.75;;;6.22;69.41
21240;BME280;10778;48.962;9.018;2023-01-10T14:44:30;99688.03;;;6.26;70.07
21240;BME280;10778;48.962;9.018;2023-01-10T14:46:58;99686.63;;;6.06;70.31
21240;BME280;10778;48.962;9.018;2023-01-10T14:49:33;99676.94;;;6.08;71.50
21240;BME280;10778;48.962;9.018;2023-01-10T14:54:38;99681.19;;;5.95;70.97
21240;BME280;10778;48.962;9.018;2023-01-10T14:57:16;99666.72;;;5.89;71.30